sensor_id;sensor_type;location;lat;lon;timestamp;pressure;altitude;pressure_sealevel;temperature;humidity
23677;BME280;31493;49.058;12.190;2024-01-15T00:01:31;94733.63;;;-4.25;100.00
23677;BME280;31493;49.058;12.190;2024-01-15T00:03:59;94736.59;;;-4.37;100.00
23677;BME280;31493;49.058;12.190;2024-01-15T00:06:26;94731.88;;;-4.23;100.00
23677;BME280;31493;49.058;12.190;2024-01-15T00:08:54;94736.63;;;-4.39;100.00
23677;BME280;31493;49.058;12.190;2024-01-15T00:11:22;94733.81;;;-4.55;100.00
23677;BME280;31493;49.058;12.190;2024-01-15T00:13:49;94725.63;;;-4.61;100.00
23677;BME280;31493;49.058;12.190;2024-01-15T00:16:16;94710.81;;;-4.72;100.00
23677;BME280;31493;49.058;12.190;2024-01-15T00:18:43;94714.34;;;-4.53;100.00
23677;BME280;31493;49.058;12.190;2024-01-15T00:21:10;94714.78;;;-4.65;100.00
23677;BME280;31493;49.058;12.190;2024-01-15T00:23:42;94711.38;;;-4.40;100.00
23677;BME280;31493;49.058;12.190;2024-01-15T00:26:09;94719.47;;;-4.54;100.00
23677;BME280;31493;49.058;12.190;2024-01-15T00:28:37;94721.06;;;-4.28;100.00
23677;BME280;31493;49.058;12.190;2024-01-15T00:31:05;94717.63;;;-4.51;100.00
23677;BME280;31493;49.058;12.190;2024-01-15T00:33:32;94718.97;;;-4.40;100.00
23677;BME280;31493;49.058;12.190;2024-01-15T00:35:59;94719.94;;;-4.44;100.00
23677;BME280;31493;49.058;12.190;2024-01-15T00:38:26;94717.88;;;-4.33;100.00
23677;BME280;31493;49.058;12.190;2024-01-15T00:40:53;94732.91;;;-4.29;100.00
23677;BME280;31493;49.058;12.190;2024-01-15T00:43:20;94730.88;;;-4.42;100.00
23677;BME280;31493;49.058;12.190;2024-01-15T00:45:48;94731.94;;;-4.25;100.00
23677;BME280;31493;49.058;12.190;2024-01-15T00:48:15;94727.38;;;-4.40;100.00
23677;BME280;31493;49.058;12.190;2024-01-15T00:50:42;94718.81;;;-4.36;100.00
23677;BME280;31493;49.058;12.190;2024-01-15T00:53:09;94728.94;;;-4.36;100.00
23677;BME280;31493;49.058;12.190;2024-01-15T00:55:36;94724.53;;;-4.79;100.00
23677;BME280;31493;49.058;12.190;2024-01-15T00:58:04;94722.84;;;-4.79;100.00
23677;BME280;31493;49.058;12.190;2024-01-15T01:00:31;94715.59;;;-4.64;100.00
23677;BME280;31493;49.058;12.190;2024-01-15T01:02:59;94719.50;;;-4.81;100.00
23677;BME280;31493;49.058;12.190;2024-01-15T01:05:26;94709.84;;;-4.93;100.00
23677;BME280;31493;49.058;12.190;2024-01-15T01:07:53;94728.34;;;-4.67;100.00
23677;BME280;31493;49.058;12.190;2024-01-15T01:10:20;94717.78;;;-4.79;100.00
23677;BME280;31493;49.058;12.190;2024-01-15T01:12:47;94727.78;;;-4.75;100.00
23677;BME280;31493;49.058;12.190;2024-01-15T01:15:14;94709.81;;;-4.68;100.00
23677;BME280;31493;49.058;12.190;2024-01-15T01:17:41;94721.75;;;-4.96;100.00
23677;BME280;31493;49.058;12.190;2024-01-15T01:20:10;94722.00;;;-4.79;100.00
23677;BME280;31493;49.058;12.190;2024-01-15T01:22:37;94734.59;;;-4.78;100.00
23677;BME280;31493;49.058;12.190;2024-01-15T01:25:05;94735.28;;;-4.72;100.00
23677;BME280;31493;49.058;12.190;2024-01-15T01:27:32;94728.44;;;-4.70;100.00
23677;BME280;31493;49.058;12.190;2024-01-15T01:29:59;94737.84;;;-4.49;100.00
23677;BME280;31493;49.058;12.190;2024-01-15T01:32:26;94737.31;;;-4.59;100.00
23677;BME280;31493;49.058;12.190;2024-01-15T01:34:53;94744.78;;;-4.79;100.00
23677;BME280;31493;49.058;12.190;2024-01-15T01:37:22;94740.69;;;-4.58;100.00
23677;BME280;31493;49.058;12.190;2024-01-15T01:39:49;94742.59;;;-4.65;100.00
23677;BME280;31493;49.058;12.190;2024-01-15T01:42:16;94753.44;;;-4.61;100.00
23677;BME280;31493;49.058;12.190;2024-01-15T01:44:43;94758.38;;;-4.58;100.00
23677;BME280;31493;49.058;12.190;2024-01-15T01:47:10;94752.22;;;-4.51;100.00
23677;BME280;31493;49.058;12.190;2024-01-15T01:49:37;94755.25;;;-4.65;100.00
23677;BME280;31493;49.058;12.190;2024-01-15T01:52:05;94751.25;;;-4.47;100.00
23677;BME280;31493;49.058;12.190;2024-01-15T01:54:35;94739.72;;;-4.54;100.00
23677;BME280;31493;49.058;12.190;2024-01-15T01:57:04;94733.56;;;-4.72;100.00
23677;BME280;31493;49.058;12.190;2024-01-15T01:59:32;94740.31;;;-4.47;100.00
23677;BME280;31493;49.058;12.190;2024-01-15T02:02:00;94742.72;;;-4.68;100.00
23677;BME280;31493;49.058;12.190;2024-01-15T02:04:29;94740.00;;;-4.63;100.00
23677;BME280;31493;49.058;12.190;2024-01-15T02:06:58;94737.66;;;-4.44;100.00
23677;BME280;31493;49.058;12.190;2024-01-15T02:09:25;94733.66;;;-4.75;100.00
23677;BME280;31493;49.058;12.190;2024-01-15T02:11:54;94729.53;;;-4.53;100.00
23677;BME280;31493;49.058;12.190;2024-01-15T02:14:21;94733.09;;;-4.58;100.00
23677;BME280;31493;49.058;12.190;2024-01-15T02:16:48;94726.75;;;-4.21;100.00
23677;BME280;31493;49.058;12.190;2024-01-15T02:19:15;94730.34;;;-4.52;100.00
23677;BME280;31493;49.058;12.190;2024-01-15T02:21:44;94742.56;;;-4.40;100.00
23677;BME280;31493;49.058;12.190;2024-01-15T02:24:12;94734.94;;;-4.63;100.00
23677;BME280;31493;49.058;12.190;2024-01-15T02:26:39;94759.59;;;-4.43;100.00
23677;BME280;31493;49.058;12.190;2024-01-15T02:29:07;94755.50;;;-4.47;100.00
23677;BME280;31493;49.058;12.190;2024-01-15T02:31:35;94763.91;;;-4.47;100.00
23677;BME280;31493;49.058;12.190;2024-01-15T02:34:02;94758.94;;;-4.50;100.00
23677;BME280;31493;49.058;12.190;2024-01-15T02:36:29;94760.03;;;-4.57;100.00
23677;BME280;31493;49.058;12.190;2024-01-15T02:38:56;94764.47;;;-4.39;100.00
23677;BME280;31493;49.058;12.190;2024-01-15T02:41:24;94754.13;;;-4.33;100.00
23677;BME280;31493;49.058;12.190;2024-01-15T02:43:51;94767.13;;;-4.42;100.00
23677;BME280;31493;49.058;12.190;2024-01-15T02:46:18;94768.25;;;-4.51;100.00
23677;BME280;31493;49.058;12.190;2024-01-15T02:48:45;94769.16;;;-4.28;100.00
23677;BME280;31493;49.058;12.190;2024-01-15T02:51:12;94769.72;;;-4.20;100.00
23677;BME280;31493;49.058;12.190;2024-01-15T02:53:39;94764.09;;;-4.28;100.00
23677;BME280;31493;49.058;12.190;2024-01-15T02:56:06;94773.31;;;-4.51;100.00
23677;BME280;31493;49.058;12.190;2024-01-15T02:58:35;94763.38;;;-4.32;100.00
23677;BME280;31493;49.058;12.190;2024-01-15T03:01:02;94754.69;;;-4.48;100.00
23677;BME280;31493;49.058;12.190;2024-01-15T03:03:29;94752.28;;;-4.28;100.00
23677;BME280;31493;49.058;12.190;2024-01-15T03:05:56;94753.31;;;-4.33;100.00
23677;BME280;31493;49.058;12.190;2024-01-15T03:08:23;94764.94;;;-4.28;100.00
23677;BME280;31493;49.058;12.190;2024-01-15T03:10:50;94759.50;;;-4.17;100.00
23677;BME280;31493;49.058;12.190;2024-01-15T03:13:17;94756.38;;;-4.48;100.00
23677;BME280;31493;49.058;12.190;2024-01-15T03:15:46;94754.97;;;-4.32;100.00
23677;BME280;31493;49.058;12.190;2024-01-15T03:18:13;94758.34;;;-4.08;100.00
23677;BME280;31493;49.058;12.190;2024-01-15T03:20:40;94755.41;;;-4.21;100.00
23677;BME280;31493;49.058;12.190;2024-01-15T03:23:07;94761.06;;;-4.38;100.00
23677;BME280;31493;49.058;12.190;2024-01-15T03:25:34;94760.47;;;-4.21;100.00
23677;BME280;31493;49.058;12.190;2024-01-15T03:28:01;94754.59;;;-4.21;100.00
23677;BME280;31493;49.058;12.190;2024-01-15T03:30:28;94752.56;;;-4.12;100.00
23677;BME280;31493;49.058;12.190;2024-01-15T03:32:57;94756.22;;;-4.20;100.00
23677;BME280;31493;49.058;12.190;2024-01-15T03:35:24;94762.31;;;-4.25;100.00
23677;BME280;31493;49.058;12.190;2024-01-15T03:37:55;94750.94;;;-4.13;100.00
23677;BME280;31493;49.058;12.190;2024-01-15T03:40:22;94749.59;;;-4.23;100.00
23677;BME280;31493;49.058;12.190;2024-01-15T03:42:49;94744.91;;;-4.34;100.00
23677;BME280;31493;49.058;12.190;2024-01-15T03:45:16;94754.97;;;-4.09;100.00
23677;BME280;31493;49.058;12.190;2024-01-15T03:47:43;94747.66;;;-4.16;100.00
23677;BME280;31493;49.058;12.190;2024-01-15T03:50:11;94749.69;;;-4.26;100.00
23677;BME280;31493;49.058;12.190;2024-01-15T03:52:38;94749.31;;;-4.15;100.00
23677;BME280;31493;49.058;12.190;2024-01-15T03:55:06;94741.72;;;-4.15;100.00
23677;BME280;31493;49.058;12.190;2024-01-15T03:57:33;94739.75;;;-4.31;100.00
23677;BME280;31493;49.058;12.190;2024-01-15T04:00:00;94741.09;;;-4.22;100.00
23677;BME280;31493;49.058;12.190;2024-01-15T04:02:27;94747.97;;;-4.26;100.00
23677;BME280;31493;49.058;12.190;2024-01-15T04:04:54;94727.25;;;-4.12;100.00
23677;BME280;31493;49.058;12.190;2024-01-15T04:07:23;94743.56;;;-3.74;100.00
23677;BME280;31493;49.058;12.190;2024-01-15T04:09:49;94725.16;;;-4.24;100.00
23677;BME280;31493;49.058;12.190;2024-01-15T04:12:17;94746.41;;;-4.05;100.00
23677;BME280;31493;49.058;12.190;2024-01-15T04:14:44;94734.03;;;-4.12;100.00
23677;BME280;31493;49.058;12.190;2024-01-15T04:17:11;94735.22;;;-3.99;100.00
23677;BME280;31493;49.058;12.190;2024-01-15T04:19:38;94734.94;;;-4.15;100.00
23677;BME280;31493;49.058;12.190;2024-01-15T04:22:05;94739.50;;;-4.01;100.00
23677;BME280;31493;49.058;12.190;2024-01-15T04:24:33;94736.34;;;-4.06;100.00
23677;BME280;31493;49.058;12.190;2024-01-15T04:27:00;94723.44;;;-4.00;100.00
23677;BME280;31493;49.058;12.190;2024-01-15T04:29:27;94729.06;;;-3.92;100.00
23677;BME280;31493;49.058;12.190;2024-01-15T04:31:54;94736.94;;;-4.00;100.00
23677;BME280;31493;49.058;12.190;2024-01-15T04:34:21;94737.91;;;-4.04;100.00
23677;BME280;31493;49.058;12.190;2024-01-15T04:36:48;94733.69;;;-4.03;100.00
23677;BME280;31493;49.058;12.190;2024-01-15T04:39:15;94743.25;;;-3.88;100.00
23677;BME280;31493;49.058;12.190;2024-01-15T04:41:43;94733.28;;;-3.92;100.00
23677;BME280;31493;49.058;12.190;2024-01-15T04:44:10;94734.38;;;-3.76;100.00
23677;BME280;31493;49.058;12.190;2024-01-15T04:46:37;94732.94;;;-3.83;100.00
23677;BME280;31493;49.058;12.190;2024-01-15T04:49:04;94731.34;;;-3.86;100.00
23677;BME280;31493;49.058;12.190;2024-01-15T04:51:31;94744.47;;;-3.75;100.00
23677;BME280;31493;49.058;12.190;2024-01-15T04:53:58;94734.66;;;-3.84;100.00
23677;BME280;31493;49.058;12.190;2024-01-15T04:56:25;94733.66;;;-3.80;100.00
23677;BME280;31493;49.058;12.190;2024-01-15T04:58:54;94724.03;;;-3.70;100.00
23677;BME280;31493;49.058;12.190;2024-01-15T05:01:21;94719.47;;;-3.62;100.00
23677;BME280;31493;49.058;12.190;2024-01-15T05:03:48;94717.13;;;-3.66;100.00
23677;BME280;31493;49.058;12.190;2024-01-15T05:06:15;94700.00;;;-3.83;100.00
23677;BME280;31493;49.058;12.190;2024-01-15T05:08:42;94712.44;;;-3.77;100.00
23677;BME280;31493;49.058;12.190;2024-01-15T05:11:09;94691.88;;;-3.91;100.00
23677;BME280;31493;49.058;12.190;2024-01-15T05:13:36;94696.72;;;-3.85;100.00
23677;BME280;31493;49.058;12.190;2024-01-15T05:16:05;94702.59;;;-3.85;100.00
23677;BME280;31493;49.058;12.190;2024-01-15T05:18:32;94688.84;;;-3.56;100.00
23677;BME280;31493;49.058;12.190;2024-01-15T05:20:59;94693.06;;;-3.78;100.00
23677;BME280;31493;49.058;12.190;2024-01-15T05:23:26;94693.78;;;-3.75;100.00
23677;BME280;31493;49.058;12.190;2024-01-15T05:25:53;94704.50;;;-3.68;100.00
23677;BME280;31493;49.058;12.190;2024-01-15T05:28:20;94711.53;;;-3.75;100.00
23677;BME280;31493;49.058;12.190;2024-01-15T05:30:48;94700.84;;;-3.61;100.00
23677;BME280;31493;49.058;12.190;2024-01-15T05:33:17;94704.16;;;-3.37;100.00
23677;BME280;31493;49.058;12.190;2024-01-15T05:35:45;94708.34;;;-3.36;100.00
23677;BME280;31493;49.058;12.190;2024-01-15T05:38:12;94713.34;;;-3.34;100.00
23677;BME280;31493;49.058;12.190;2024-01-15T05:40:39;94702.44;;;-3.58;100.00
23677;BME280;31493;49.058;12.190;2024-01-15T05:43:06;94693.09;;;-3.56;100.00
23677;BME280;31493;49.058;12.190;2024-01-15T05:45:34;94690.31;;;-3.50;100.00
23677;BME280;31493;49.058;12.190;2024-01-15T05:48:01;94687.69;;;-3.71;100.00
23677;BME280;31493;49.058;12.190;2024-01-15T05:50:30;94706.75;;;-3.60;100.00
23677;BME280;31493;49.058;12.190;2024-01-15T05:52:57;94701.28;;;-3.50;100.00
23677;BME280;31493;49.058;12.190;2024-01-15T05:55:24;94707.91;;;-3.47;100.00
23677;BME280;31493;49.058;12.190;2024-01-15T05:57:51;94711.72;;;-3.57;100.00
23677;BME280;31493;49.058;12.190;2024-01-15T06:00:18;94702.84;;;-3.47;100.00
23677;BME280;31493;49.058;12.190;2024-01-15T06:02:45;94705.34;;;-3.67;100.00
23677;BME280;31493;49.058;12.190;2024-01-15T06:05:12;94709.13;;;-3.56;100.00
23677;BME280;31493;49.058;12.190;2024-01-15T06:07:41;94704.16;;;-3.37;100.00
23677;BME280;31493;49.058;12.190;2024-01-15T06:10:08;94707.19;;;-3.29;100.00
23677;BME280;31493;49.058;12.190;2024-01-15T06:12:35;94716.09;;;-3.40;100.00
23677;BME280;31493;49.058;12.190;2024-01-15T06:15:02;94706.22;;;-3.47;100.00
23677;BME280;31493;49.058;12.190;2024-01-15T06:17:29;94714.94;;;-3.32;100.00
23677;BME280;31493;49.058;12.190;2024-01-15T06:19:57;94697.31;;;-3.35;100.00
23677;BME280;31493;49.058;12.190;2024-01-15T06:22:24;94702.91;;;-3.27;100.00
23677;BME280;31493;49.058;12.190;2024-01-15T06:24:52;94694.19;;;-3.20;100.00
23677;BME280;31493;49.058;12.190;2024-01-15T06:27:19;94698.94;;;-3.12;100.00
23677;BME280;31493;49.058;12.190;2024-01-15T06:29:46;94689.94;;;-3.19;100.00
23677;BME280;31493;49.058;12.190;2024-01-15T06:32:13;94686.75;;;-3.24;100.00
23677;BME280;31493;49.058;12.190;2024-01-15T06:34:40;94697.38;;;-3.16;100.00
23677;BME280;31493;49.058;12.190;2024-01-15T06:37:07;94682.06;;;-3.13;100.00
23677;BME280;31493;49.058;12.190;2024-01-15T06:39:35;94696.31;;;-3.10;100.00
23677;BME280;31493;49.058;12.190;2024-01-15T06:42:04;94685.00;;;-3.02;100.00
23677;BME280;31493;49.058;12.190;2024-01-15T06:44:31;94688.91;;;-3.15;100.00
23677;BME280;31493;49.058;12.190;2024-01-15T06:46:58;94691.41;;;-2.93;100.00
23677;BME280;31493;49.058;12.190;2024-01-15T06:49:28;94691.41;;;-2.93;100.00
23677;BME280;31493;49.058;12.190;2024-01-15T06:51:55;94701.19;;;-3.26;100.00
23677;BME280;31493;49.058;12.190;2024-01-15T06:54:22;94691.25;;;-3.10;100.00
23677;BME280;31493;49.058;12.190;2024-01-15T06:56:49;94694.47;;;-3.27;100.00
23677;BME280;31493;49.058;12.190;2024-01-15T06:59:18;94705.97;;;-2.98;100.00
23677;BME280;31493;49.058;12.190;2024-01-15T07:01:45;94707.66;;;-3.19;100.00
23677;BME280;31493;49.058;12.190;2024-01-15T07:04:12;94711.03;;;-3.19;100.00
23677;BME280;31493;49.058;12.190;2024-01-15T07:06:39;94709.53;;;-3.02;100.00
23677;BME280;31493;49.058;12.190;2024-01-15T07:09:06;94688.91;;;-3.15;100.00
23677;BME280;31493;49.058;12.190;2024-01-15T07:11:34;94691.91;;;-3.05;100.00
23677;BME280;31493;49.058;12.190;2024-01-15T07:14:01;94688.16;;;-3.17;100.00
23677;BME280;31493;49.058;12.190;2024-01-15T07:16:30;94688.16;;;-3.17;100.00
23677;BME280;31493;49.058;12.190;2024-01-15T07:18:57;94699.69;;;-3.10;100.00
23677;BME280;31493;49.058;12.190;2024-01-15T07:21:24;94695.16;;;-3.02;100.00
23677;BME280;31493;49.058;12.190;2024-01-15T07:23:51;94698.69;;;-3.06;100.00
23677;BME280;31493;49.058;12.190;2024-01-15T07:26:18;94694.13;;;-2.98;100.00
23677;BME280;31493;49.058;12.190;2024-01-15T07:28:45;94688.75;;;-2.90;100.00
23677;BME280;31493;49.058;12.190;2024-01-15T07:31:12;94698.25;;;-2.75;100.00
23677;BME280;31493;49.058;12.190;2024-01-15T07:33:40;94688.94;;;-2.95;100.00
23677;BME280;31493;49.058;12.190;2024-01-15T07:36:07;94684.78;;;-2.56;100.00
23677;BME280;31493;49.058;12.190;2024-01-15T07:38:34;94680.09;;;-2.86;100.00
23677;BME280;31493;49.058;12.190;2024-01-15T07:41:02;94688.03;;;-2.73;100.00
23677;BME280;31493;49.058;12.190;2024-01-15T07:43:29;94683.31;;;-2.62;100.00
23677;BME280;31493;49.058;12.190;2024-01-15T07:45:56;94690.97;;;-2.82;100.00
23677;BME280;31493;49.058;12.190;2024-01-15T07:48:24;94686.72;;;-2.82;100.00
23677;BME280;31493;49.058;12.190;2024-01-15T07:50:52;94699.25;;;-2.58;100.00
23677;BME280;31493;49.058;12.190;2024-01-15T07:53:19;94693.28;;;-2.57;100.00
23677;BME280;31493;49.058;12.190;2024-01-15T07:55:46;94705.09;;;-2.56;100.00
23677;BME280;31493;49.058;12.190;2024-01-15T07:58:13;94707.13;;;-2.65;100.00
23677;BME280;31493;49.058;12.190;2024-01-15T08:00:40;94693.66;;;-2.67;100.00
23677;BME280;31493;49.058;12.190;2024-01-15T08:03:07;94694.81;;;-2.53;100.00
23677;BME280;31493;49.058;12.190;2024-01-15T08:05:34;94693.56;;;-2.64;100.00
23677;BME280;31493;49.058;12.190;2024-01-15T08:08:03;94692.81;;;-2.66;100.00
23677;BME280;31493;49.058;12.190;2024-01-15T08:10:30;94690.63;;;-2.36;100.00
23677;BME280;31493;49.058;12.190;2024-01-15T08:12:57;94691.84;;;-2.63;100.00
23677;BME280;31493;49.058;12.190;2024-01-15T08:15:24;94691.34;;;-2.32;100.00
23677;BME280;31493;49.058;12.190;2024-01-15T08:17:51;94693.84;;;-2.51;100.00
23677;BME280;31493;49.058;12.190;2024-01-15T08:20:19;94691.28;;;-2.30;100.00
23677;BME280;31493;49.058;12.190;2024-01-15T08:22:45;94686.44;;;-2.37;100.00
23677;BME280;31493;49.058;12.190;2024-01-15T08:25:15;94694.41;;;-2.44;100.00
23677;BME280;31493;49.058;12.190;2024-01-15T08:27:42;94700.69;;;-2.32;100.00
23677;BME280;31493;49.058;12.190;2024-01-15T08:30:10;94696.91;;;-2.24;100.00
23677;BME280;31493;49.058;12.190;2024-01-15T08:32:37;94691.59;;;-2.38;100.00
23677;BME280;31493;49.058;12.190;2024-01-15T08:35:08;94691.34;;;-2.13;100.00
23677;BME280;31493;49.058;12.190;2024-01-15T08:37:35;94681.81;;;-2.27;100.00
23677;BME280;31493;49.058;12.190;2024-01-15T08:40:02;94680.16;;;-2.28;100.00
23677;BME280;31493;49.058;12.190;2024-01-15T08:42:31;94679.91;;;-1.84;100.00
23677;BME280;31493;49.058;12.190;2024-01-15T08:44:58;94672.34;;;-2.04;100.00
23677;BME280;31493;49.058;12.190;2024-01-15T08:47:25;94682.38;;;-2.01;100.00
23677;BME280;31493;49.058;12.190;2024-01-15T08:49:52;94683.34;;;-2.04;100.00
23677;BME280;31493;49.058;12.190;2024-01-15T08:52:19;94674.94;;;-2.06;100.00
23677;BME280;31493;49.058;12.190;2024-01-15T08:54:46;94681.19;;;-1.75;100.00
23677;BME280;31493;49.058;12.190;2024-01-15T08:57:13;94678.38;;;-1.88;100.00
23677;BME280;31493;49.058;12.190;2024-01-15T08:59:41;94673.47;;;-1.91;100.00
23677;BME280;31493;49.058;12.190;2024-01-15T09:02:08;94668.91;;;-1.85;100.00
23677;BME280;31493;49.058;12.190;2024-01-15T09:04:35;94663.03;;;-1.68;100.00
23677;BME280;31493;49.058;12.190;2024-01-15T09:07:02;94675.97;;;-1.72;100.00
23677;BME280;31493;49.058;12.190;2024-01-15T09:09:30;94675.75;;;-1.68;100.00
23677;BME280;31493;49.058;12.190;2024-01-15T09:11:56;94668.56;;;-1.77;100.00
23677;BME280;31493;49.058;12.190;2024-01-15T09:14:24;94670.00;;;-1.71;100.00
23677;BME280;31493;49.058;12.190;2024-01-15T09:16:54;94662.72;;;-1.79;100.00
23677;BME280;31493;49.058;12.190;2024-01-15T09:19:21;94674.19;;;-1.70;100.00
23677;BME280;31493;49.058;12.190;2024-01-15T09:21:48;94687.34;;;-1.62;100.00
23677;BME280;31493;49.058;12.190;2024-01-15T09:24:16;94675.41;;;-1.60;100.00
23677;BME280;31493;49.058;12.190;2024-01-15T09:26:43;94682.09;;;-1.40;100.00
23677;BME280;31493;49.058;12.190;2024-01-15T09:29:10;94691.47;;;-1.60;100.00
23677;BME280;31493;49.058;12.190;2024-01-15T09:31:37;94675.44;;;-1.79;100.00
23677;BME280;31493;49.058;12.190;2024-01-15T09:34:06;94683.16;;;-1.63;100.00
23677;BME280;31493;49.058;12.190;2024-01-15T09:36:39;94687.59;;;-1.67;100.00
23677;BME280;31493;49.058;12.190;2024-01-15T09:39:06;94675.19;;;-1.74;100.00
23677;BME280;31493;49.058;12.190;2024-01-15T09:41:34;94669.00;;;-1.69;100.00
23677;BME280;31493;49.058;12.190;2024-01-15T09:44:02;94677.34;;;-1.84;100.00
23677;BME280;31493;49.058;12.190;2024-01-15T09:46:31;94679.19;;;-1.69;100.00
23677;BME280;31493;49.058;12.190;2024-01-15T09:48:59;94690.88;;;-1.65;100.00
23677;BME280;31493;49.058;12.190;2024-01-15T09:51:31;94694.44;;;-1.88;100.00
23677;BME280;31493;49.058;12.190;2024-01-15T09:53:58;94672.06;;;-1.79;100.00
23677;BME280;31493;49.058;12.190;2024-01-15T09:56:25;94676.88;;;-1.73;100.00
23677;BME280;31493;49.058;12.190;2024-01-15T09:58:53;94673.56;;;-1.75;100.00
23677;BME280;31493;49.058;12.190;2024-01-15T10:01:20;94673.59;;;-1.58;100.00
23677;BME280;31493;49.058;12.190;2024-01-15T10:03:48;94666.31;;;-1.47;100.00
23677;BME280;31493;49.058;12.190;2024-01-15T10:06:16;94665.13;;;-1.40;100.00
23677;BME280;31493;49.058;12.190;2024-01-15T10:08:47;94665.91;;;-1.57;100.00
23677;BME280;31493;49.058;12.190;2024-01-15T10:11:14;94665.41;;;-1.46;100.00
23677;BME280;31493;49.058;12.190;2024-01-15T10:13:43;94661.69;;;-1.39;100.00
23677;BME280;31493;49.058;12.190;2024-01-15T10:16:10;94669.06;;;-1.51;100.00
23677;BME280;31493;49.058;12.190;2024-01-15T10:18:38;94675.03;;;-2.08;100.00
23677;BME280;31493;49.058;12.190;2024-01-15T10:21:06;94674.28;;;-2.10;100.00
23677;BME280;31493;49.058;12.190;2024-01-15T10:23:33;94679.69;;;-1.98;100.00
23677;BME280;31493;49.058;12.190;2024-01-15T10:26:03;94662.41;;;-2.09;100.00
23677;BME280;31493;49.058;12.190;2024-01-15T10:28:31;94665.97;;;-1.94;100.00
23677;BME280;31493;49.058;12.190;2024-01-15T10:30:59;94664.44;;;-1.98;100.00
23677;BME280;31493;49.058;12.190;2024-01-15T10:33:27;94649.19;;;-1.98;100.00
23677;BME280;31493;49.058;12.190;2024-01-15T10:35:55;94633.97;;;-2.17;100.00
23677;BME280;31493;49.058;12.190;2024-01-15T10:38:23;94640.09;;;-2.02;100.00
23677;BME280;31493;49.058;12.190;2024-01-15T10:40:51;94638.47;;;-1.86;100.00
23677;BME280;31493;49.058;12.190;2024-01-15T10:43:20;94633.75;;;-1.58;100.00
23677;BME280;31493;49.058;12.190;2024-01-15T10:45:48;94637.03;;;-1.73;100.00
23677;BME280;31493;49.058;12.190;2024-01-15T10:48:17;94620.69;;;-1.86;100.00
23677;BME280;31493;49.058;12.190;2024-01-15T10:50:45;94634.06;;;-1.64;100.00
23677;BME280;31493;49.058;12.190;2024-01-15T10:53:14;94635.28;;;-1.36;100.00
23677;BME280;31493;49.058;12.190;2024-01-15T10:55:42;94624.00;;;-1.48;100.00
23677;BME280;31493;49.058;12.190;2024-01-15T10:58:09;94617.84;;;-1.27;100.00
23677;BME280;31493;49.058;12.190;2024-01-15T11:00:38;94621.00;;;-1.39;100.00
23677;BME280;31493;49.058;12.190;2024-01-15T11:03:05;94632.50;;;-1.32;100.00
23677;BME280;31493;49.058;12.190;2024-01-15T11:05:34;94632.97;;;-1.41;100.00
23677;BME280;31493;49.058;12.190;2024-01-15T11:08:05;94621.31;;;-1.28;100.00
23677;BME280;31493;49.058;12.190;2024-01-15T11:10:44;94639.03;;;-1.09;100.00
23677;BME280;31493;49.058;12.190;2024-01-15T11:13:18;94629.97;;;-1.14;100.00
23677;BME280;31493;49.058;12.190;2024-01-15T11:16:01;94638.94;;;-1.07;100.00
23677;BME280;31493;49.058;12.190;2024-01-15T11:18:30;94619.28;;;-1.38;100.00
23677;BME280;31493;49.058;12.190;2024-01-15T11:21:21;94609.09;;;-1.21;100.00
23677;BME280;31493;49.058;12.190;2024-01-15T11:23:51;94610.09;;;-1.41;100.00
23677;BME280;31493;49.058;12.190;2024-01-15T11:26:34;94608.16;;;-1.18;100.00
23677;BME280;31493;49.058;12.190;2024-01-15T11:29:03;94601.78;;;-1.27;100.00
23677;BME280;31493;49.058;12.190;2024-01-15T11:32:00;94607.75;;;-1.45;100.00
23677;BME280;31493;49.058;12.190;2024-01-15T11:34:52;94609.06;;;-1.37;100.00
23677;BME280;31493;49.058;12.190;2024-01-15T11:37:21;94603.34;;;-1.42;100.00
23677;BME280;31493;49.058;12.190;2024-01-15T11:39:54;94596.34;;;-1.37;100.00
23677;BME280;31493;49.058;12.190;2024-01-15T11:42:22;94617.72;;;-1.41;100.00
23677;BME280;31493;49.058;12.190;2024-01-15T11:44:50;94597.78;;;-1.50;100.00
23677;BME280;31493;49.058;12.190;2024-01-15T11:47:39;94603.41;;;-1.43;100.00
23677;BME280;31493;49.058;12.190;2024-01-15T11:50:12;94618.91;;;-1.31;100.00
23677;BME280;31493;49.058;12.190;2024-01-15T11:52:39;94623.41;;;-1.18;100.00
23677;BME280;31493;49.058;12.190;2024-01-15T11:55:15;94619.66;;;-1.11;100.00
23677;BME280;31493;49.058;12.190;2024-01-15T11:57:46;94606.22;;;-1.31;100.00
23677;BME280;31493;49.058;12.190;2024-01-15T12:00:15;94627.59;;;-1.35;100.00
23677;BME280;31493;49.058;12.190;2024-01-15T12:02:45;94614.88;;;-1.35;100.00
23677;BME280;31493;49.058;12.190;2024-01-15T12:05:14;94621.00;;;-1.39;100.00
23677;BME280;31493;49.058;12.190;2024-01-15T12:07:42;94604.25;;;-1.43;100.00
23677;BME280;31493;49.058;12.190;2024-01-15T12:10:10;94599.09;;;-1.41;100.00
23677;BME280;31493;49.058;12.190;2024-01-15T12:12:49;94601.75;;;-1.44;100.00
23677;BME280;31493;49.058;12.190;2024-01-15T12:15:20;94607.00;;;-1.47;100.00
23677;BME280;31493;49.058;12.190;2024-01-15T12:17:48;94596.09;;;-1.32;100.00
23677;BME280;31493;49.058;12.190;2024-01-15T12:20:17;94593.91;;;-1.57;100.00
23677;BME280;31493;49.058;12.190;2024-01-15T12:22:45;94591.38;;;-1.40;100.00
23677;BME280;31493;49.058;12.190;2024-01-15T12:25:12;94585.25;;;-1.53;100.00
23677;BME280;31493;49.058;12.190;2024-01-15T12:27:39;94586.00;;;-1.34;100.00
23677;BME280;31493;49.058;12.190;2024-01-15T12:30:09;94587.94;;;-1.39;100.00
23677;BME280;31493;49.058;12.190;2024-01-15T12:32:37;94581.97;;;-1.55;100.00
23677;BME280;31493;49.058;12.190;2024-01-15T12:35:06;94578.59;;;-1.21;100.00
23677;BME280;31493;49.058;12.190;2024-01-15T12:37:35;94589.88;;;-1.27;100.00
23677;BME280;31493;49.058;12.190;2024-01-15T12:40:03;94578.38;;;-1.34;100.00
23677;BME280;31493;49.058;12.190;2024-01-15T12:42:30;94581.59;;;-1.30;100.00
23677;BME280;31493;49.058;12.190;2024-01-15T12:44:57;94574.09;;;-1.50;100.00